Time;durP1;ratioP1;P1;durP2;ratioP2;P2;SDS_P1;SDS_P2;PMS_P1;PMS_P2;Temp;Humidity;BMP_temperature;BMP_pressure;BME280_temperature;BME280_humidity;BME280_pressure;Samples;Min_cycle;Max_cycle;Signal;HPM_P1;HPM_P2
2022/01/09 00:00:06;;;;;;;3.77;3.00;;;;;;;3.27;100.00;98284.22;6184475;23;20021;-88
2022/01/09 00:02:32;;;;;;;4.35;3.05;;;;;;;3.26;100.00;98287.88;6209426;23;20259;-88
2022/01/09 00:04:57;;;;;;;4.85;2.72;;;;;;;3.26;100.00;98279.94;6183950;23;20039;-89
2022/01/09 00:07:23;;;;;;;4.25;3.03;;;;;;;3.25;100.00;98283.59;6182561;23;20444;-89
2022/01/09 00:09:48;;;;;;;4.15;2.60;;;;;;;3.24;100.00;98289.88;6159526;23;20036;-89
2022/01/09 00:12:13;;;;;;;4.60;3.28;;;;;;;3.23;100.00;98276.81;6210198;23;20032;-90
2022/01/09 00:14:39;;;;;;;4.63;3.35;;;;;;;3.22;100.00;98275.97;6184742;23;20324;-89
2022/01/09 00:17:04;;;;;;;5.38;3.20;;;;;;;3.21;100.00;98270.88;6192036;23;20024;-88
2022/01/09 00:19:29;;;;;;;4.53;2.95;;;;;;;3.18;100.00;98261.44;6214740;23;20020;-87
2022/01/09 00:21:55;;;;;;;4.90;3.20;;;;;;;3.19;100.00;98271.03;6207502;23;20027;-88
2022/01/09 00:24:20;;;;;;;5.03;3.30;;;;;;;3.16;100.00;98263.44;6182553;23;20017;-88
2022/01/09 00:26:46;;;;;;;4.95;3.35;;;;;;;3.17;100.00;98273.06;6184543;23;20015;-87
2022/01/09 00:29:11;;;;;;;4.95;3.55;;;;;;;3.17;100.00;98260.63;6207742;23;20083;-88
2022/01/09 00:31:38;;;;;;;4.93;3.78;;;;;;;3.17;100.00;98265.91;6210000;23;20012;-88
2022/01/09 00:34:03;;;;;;;4.82;3.80;;;;;;;3.17;100.00;98265.91;6207302;23;20032;-87
2022/01/09 00:36:30;;;;;;;4.97;3.42;;;;;;;3.18;100.00;98261.44;6205676;23;20016;-88
2022/01/09 00:38:56;;;;;;;4.95;3.38;;;;;;;3.16;100.00;98261.63;6203832;23;20635;-88
2022/01/09 00:41:21;;;;;;;4.90;3.30;;;;;;;3.13;100.00;98274.38;6182727;23;20024;-90
2022/01/09 00:43:47;;;;;;;5.43;3.63;;;;;;;3.14;100.00;98268.94;6184339;23;20452;-87
2022/01/09 00:46:12;;;;;;;5.93;4.00;;;;;;;3.14;100.00;98271.59;6183471;23;20395;-87
2022/01/09 00:48:37;;;;;;;5.95;4.20;;;;;;;3.13;100.00;98259.31;6159225;23;20119;-87
2022/01/09 00:51:03;;;;;;;5.93;4.47;;;;;;;3.13;100.00;98256.66;6158238;23;20026;-87
2022/01/09 00:53:28;;;;;;;5.38;3.88;;;;;;;3.13;100.00;98266.44;6182789;23;20016;-87
2022/01/09 00:55:54;;;;;;;7.18;4.47;;;;;;;3.13;100.00;98263.78;6206713;23;20024;-89
2022/01/09 00:58:19;;;;;;;6.32;4.80;;;;;;;3.14;100.00;98260.16;6182881;23;20075;-88
2022/01/09 01:00:45;;;;;;;7.75;4.78;;;;;;;3.13;100.00;98264.59;6133886;23;20352;-86
2022/01/09 01:03:10;;;;;;;5.60;4.43;;;;;;;3.14;100.00;98266.28;6133361;23;20024;-88
2022/01/09 01:05:35;;;;;;;5.38;3.72;;;;;;;3.13;100.00;98258.50;6209109;23;20020;-88
2022/01/09 01:08:01;;;;;;;5.70;3.67;;;;;;;3.13;100.00;98253.19;6154037;23;20017;-88
2022/01/09 01:10:27;;;;;;;5.03;3.50;;;;;;;3.14;100.00;98254.84;6182691;23;20020;-87
2022/01/09 01:12:52;;;;;;;5.68;4.35;;;;;;;3.13;100.00;98274.38;6180111;23;20019;-86
2022/01/09 01:15:18;;;;;;;5.82;4.72;;;;;;;3.14;100.00;98284.00;6183588;23;20027;-89
2022/01/09 01:17:44;;;;;;;6.32;4.95;;;;;;;3.14;100.00;98282.19;6133359;23;20024;-89
2022/01/09 01:20:11;;;;;;;7.82;5.78;;;;;;;3.15;100.00;98293.59;6183040;23;20036;-89
2022/01/09 01:22:37;;;;;;;6.82;4.75;;;;;;;3.15;100.00;98294.41;6208380;23;20481;-87
2022/01/09 01:25:04;;;;;;;6.53;4.75;;;;;;;3.17;100.00;98291.59;6209835;23;20020;-87
2022/01/09 01:27:30;;;;;;;6.75;5.47;;;;;;;3.15;100.00;98297.06;6183882;23;20092;-87
2022/01/09 01:29:55;;;;;;;8.65;6.68;;;;;;;3.15;100.00;98297.06;6208816;23;20479;-87
2022/01/09 01:32:22;;;;;;;7.57;5.82;;;;;;;3.15;100.00;98301.53;6158537;23;20028;-86
2022/01/09 01:34:47;;;;;;;7.80;6.72;;;;;;;3.14;100.00;98308.69;6184008;23;20012;-87
2022/01/09 01:37:13;;;;;;;8.57;6.70;;;;;;;3.16;100.00;98311.13;6208077;23;20024;-88
2022/01/09 01:39:38;;;;;;;8.10;6.60;;;;;;;3.19;100.00;98315.25;6183582;23;20517;-87
2022/01/09 01:42:04;;;;;;;9.38;7.75;;;;;;;3.21;100.00;98318.56;6155873;23;20012;-88
2022/01/09 01:44:46;;;;;;;10.65;7.25;;;;;;;3.17;100.00;98316.28;6207678;23;20469;-87
2022/01/09 01:47:13;;;;;;;10.43;7.55;;;;;;;3.16;100.00;98322.59;6182377;23;20009;-88
2022/01/09 01:49:39;;;;;;;14.25;10.88;;;;;;;3.17;100.00;98323.41;6134854;23;20023;-87
2022/01/09 01:52:05;;;;;;;13.02;10.45;;;;;;;3.16;100.00;98327.88;6132882;23;20119;-88
2022/01/09 01:54:32;;;;;;;13.70;10.45;;;;;;;3.17;100.00;98318.91;6183577;23;20124;-88
2022/01/09 01:56:58;;;;;;;13.95;11.38;;;;;;;3.16;100.00;98319.94;6208178;23;20452;-88
2022/01/09 01:59:23;;;;;;;17.70;11.80;;;;;;;3.16;100.00;98322.59;6158903;23;20019;-89
2022/01/09 02:01:49;;;;;;;19.17;16.35;;;;;;;3.18;100.00;98319.75;6206840;23;20051;-88
2022/01/09 02:04:14;;;;;;;18.27;13.40;;;;;;;3.19;100.00;98320.56;6207699;23;20012;-87
2022/01/09 02:06:40;;;;;;;19.80;15.00;;;;;;;3.20;100.00;98315.09;6183220;23;20490;-88
2022/01/09 02:09:05;;;;;;;18.52;14.75;;;;;;;3.19;100.00;98318.72;6204604;23;20016;-87
2022/01/09 02:11:32;;;;;;;18.33;15.23;;;;;;;3.21;100.00;98324.69;6210012;23;20143;-87
2022/01/09 02:13:58;;;;;;;18.60;13.57;;;;;;;3.22;100.00;98344.06;6207276;23;20013;-89
2022/01/09 02:16:23;;;;;;;15.38;12.75;;;;;;;3.23;100.00;98348.38;6211127;23;20027;-88
2022/01/09 02:18:49;;;;;;;16.92;13.07;;;;;;;3.22;100.00;98339.56;6136837;23;20087;-87
2022/01/09 02:21:15;;;;;;;16.38;14.40;;;;;;;3.23;100.00;98343.91;6184779;23;20008;-88
2022/01/09 02:23:46;;;;;;;21.80;17.00;;;;;;;3.24;100.00;98340.22;6210920;23;20020;-88
2022/01/09 02:26:24;;;;;;;21.63;16.30;;;;;;;3.25;100.00;98346.34;6185233;23;20015;-87
2022/01/09 02:28:50;;;;;;;21.88;17.27;;;;;;;3.26;100.00;98346.19;6210333;23;20008;-88
2022/01/09 02:31:16;;;;;;;24.60;16.42;;;;;;;3.26;100.00;98348.84;6184618;23;20078;-89
2022/01/09 02:33:43;;;;;;;23.63;17.88;;;;;;;3.27;100.00;98344.34;6210727;23;20079;-87
2022/01/09 02:36:09;;;;;;;26.38;18.55;;;;;;;3.25;100.00;98355.16;6160259;23;20027;-88
2022/01/09 02:38:35;;;;;;;27.73;21.00;;;;;;;3.26;100.00;98367.41;6159886;23;20020;-88
2022/01/09 02:41:00;;;;;;;27.63;21.25;;;;;;;3.27;100.00;98361.09;6212380;23;20017;-87
2022/01/09 02:43:25;;;;;;;31.20;21.52;;;;;;;3.29;100.00;98368.88;6136648;23;20444;-87
2022/01/09 02:46:04;;;;;;;27.90;20.50;;;;;;;3.31;100.00;98366.84;6209222;23;20012;-88
2022/01/09 02:48:33;;;;;;;27.88;20.73;;;;;;;3.32;100.00;98379.94;6211578;23;20392;-87
2022/01/09 02:51:08;;;;;;;21.67;13.15;;;;;;;3.38;100.00;98379.22;6193897;23;20027;-87
2022/01/09 02:53:36;;;;;;;24.50;16.13;;;;;;;3.44;100.00;98382.19;6205965;23;20016;-88
2022/01/09 02:56:03;;;;;;;26.17;17.23;;;;;;;3.47;100.00;98376.53;6180007;23;20640;-89
2022/01/09 02:58:30;;;;;;;27.67;19.98;;;;;;;3.50;100.00;98379.63;6205608;23;20070;-88
2022/01/09 03:00:56;;;;;;;28.50;18.77;;;;;;;3.51;100.00;98401.66;6179582;23;20099;-87
2022/01/09 03:03:21;;;;;;;28.52;18.10;;;;;;;3.53;100.00;98407.63;6182620;23;20903;-88
2022/01/09 03:05:48;;;;;;;24.88;13.65;;;;;;;3.52;100.00;98401.50;6156190;23;20020;-88
2022/01/09 03:08:14;;;;;;;28.85;21.10;;;;;;;3.55;100.00;98405.63;6154124;23;20020;-88
2022/01/09 03:10:39;;;;;;;22.67;14.50;;;;;;;3.55;100.00;98411.75;6207219;23;20554;-87
2022/01/09 03:13:06;;;;;;;21.88;13.95;;;;;;;3.56;100.00;98424.00;6178470;23;20410;-88
2022/01/09 03:15:31;;;;;;;21.05;14.60;;;;;;;3.60;100.00;98429.81;6180684;23;20075;-87
2022/01/09 03:17:57;;;;;;;19.92;14.13;;;;;;;3.65;100.00;98426.59;6155671;23;20024;-87
2022/01/09 03:20:25;;;;;;;17.10;12.73;;;;;;;3.67;100.00;98430.72;6179361;23;20055;-89
2022/01/09 03:22:51;;;;;;;12.90;8.63;;;;;;;3.70;100.00;98448.94;6207280;23;20012;-88
2022/01/09 03:25:18;;;;;;;11.05;8.68;;;;;;;3.72;100.00;98443.47;6205483;23;20017;-88
2022/01/09 03:27:50;;;;;;;10.95;7.38;;;;;;;3.76;100.00;98455.38;6205236;23;20024;-88
2022/01/09 03:30:18;;;;;;;10.20;5.25;;;;;;;3.78;100.00;98454.19;6204690;23;20044;-88
2022/01/09 03:32:44;;;;;;;8.68;3.95;;;;;;;3.79;100.00;98455.81;6206341;23;20020;-87
2022/01/09 03:35:13;;;;;;;7.22;4.15;;;;;;;3.83;100.00;98462.44;6204820;23;20087;-87
2022/01/09 03:37:42;;;;;;;7.40;3.53;;;;;;;3.86;100.00;98461.25;6181191;23;20020;-88
2022/01/09 03:40:10;;;;;;;9.30;3.40;;;;;;;3.87;100.00;98467.41;6204308;23;20023;-88
2022/01/09 03:42:37;;;;;;;6.50;2.75;;;;;;;3.89;100.00;98481.31;6206655;23;20025;-88
2022/01/09 03:45:05;;;;;;;6.28;2.60;;;;;;;3.91;100.00;98495.22;6180608;23;20016;-88
2022/01/09 03:47:31;;;;;;;6.00;2.50;;;;;;;3.92;100.00;98491.56;6178790;23;20017;-88
2022/01/09 03:49:56;;;;;;;7.22;2.25;;;;;;;3.95;100.00;98501.81;6173258;23;20025;-87
2022/01/09 03:52:27;;;;;;;5.85;1.80;;;;;;;3.96;100.00;98503.47;6174263;23;20047;-87
2022/01/09 03:54:54;;;;;;;7.32;2.85;;;;;;;3.95;100.00;98504.47;6178851;23;20020;-86
2022/01/09 03:57:20;;;;;;;12.00;2.20;;;;;;;3.96;100.00;98500.81;6205164;23;20016;-87
2022/01/09 03:59:45;;;;;;;6.60;1.40;;;;;;;3.95;100.00;98496.53;6208418;23;20412;-87
2022/01/09 04:02:11;;;;;;;10.32;1.75;;;;;;;3.97;100.00;98515.72;6180793;23;20027;-88
2022/01/09 04:04:36;;;;;;;9.23;2.35;;;;;;;3.98;100.00;98526.19;6182779;23;20461;-87
2022/01/09 04:07:02;;;;;;;7.32;1.90;;;;;;;3.98;100.00;98533.31;6157179;23;20023;-87
2022/01/09 04:09:37;;;;;;;6.53;1.55;;;;;;;3.98;100.00;98536.78;6158942;23;20036;-87
2022/01/09 04:12:15;;;;;;;7.85;1.90;;;;;;;3.99;100.00;98550.88;6207781;23;20020;-87
2022/01/09 04:14:48;;;;;;;10.48;1.90;;;;;;;3.99;100.00;98541.09;6210441;23;20016;-87
2022/01/09 04:17:43;;;;;;;10.82;2.53;;;;;;;3.99;100.00;98553.53;6211712;23;20052;-87
2022/01/09 04:20:07;;;;;;;10.73;2.47;;;;;;;3.99;100.00;98554.34;6209973;23;20448;-88
2022/01/09 04:22:32;;;;;;;13.77;3.38;;;;;;;4.03;100.00;98566.28;6184859;23;20119;-87
2022/01/09 04:24:58;;;;;;;15.15;3.72;;;;;;;4.09;100.00;98577.22;6184912;23;20036;-87
2022/01/09 04:27:23;;;;;;;17.92;3.53;;;;;;;4.11;100.00;98570.69;6185765;23;20252;-87
2022/01/09 04:29:49;;;;;;;22.90;3.92;;;;;;;4.18;100.00;98582.28;6211164;23;20013;-88
2022/01/09 04:32:14;;;;;;;19.85;3.58;;;;;;;4.23;100.00;98587.03;6134308;23;20028;-87
2022/01/09 04:34:39;;;;;;;28.70;4.57;;;;;;;4.32;100.00;98595.78;6184062;23;20016;-87
2022/01/09 04:37:05;;;;;;;28.92;5.60;;;;;;;4.38;100.00;98600.38;6211424;23;20028;-87
2022/01/09 04:39:31;;;;;;;24.25;3.88;;;;;;;4.43;100.00;98606.81;6184695;23;20013;-87
2022/01/09 04:41:56;;;;;;;29.38;5.35;;;;;;;4.49;100.00;98606.09;6183778;23;20046;-87
2022/01/09 04:44:22;;;;;;;30.35;6.72;;;;;;;4.52;100.00;98626.16;6186034;23;20551;-88
2022/01/09 04:46:55;;;;;;;31.30;6.40;;;;;;;4.56;100.00;98619.47;6186199;23;20099;-87
2022/01/09 04:49:24;;;;;;;23.92;6.25;;;;;;;4.61;100.00;98634.91;6208893;23;20371;-88
2022/01/09 04:51:49;;;;;;;27.08;4.57;;;;;;;4.62;100.00;98640.00;6160891;23;20032;-88
2022/01/09 04:54:15;;;;;;;31.98;6.20;;;;;;;4.65;100.00;98646.81;6208498;23;20435;-88
2022/01/09 04:56:40;;;;;;;24.95;5.20;;;;;;;4.68;100.00;98652.59;6184123;23;20021;-87
2022/01/09 04:59:06;;;;;;;21.17;4.30;;;;;;;4.70;100.00;98655.91;6158995;23;20012;-87
2022/01/09 05:01:31;;;;;;;20.77;4.35;;;;;;;4.71;100.00;98670.81;6183765;23;20052;-88
2022/01/09 05:03:56;;;;;;;24.88;6.00;;;;;;;4.72;100.00;98672.50;6133573;23;20059;-87
2022/01/09 05:06:22;;;;;;;25.42;4.88;;;;;;;4.74;100.00;98683.75;6204739;23;20017;-87
2022/01/09 05:08:47;;;;;;;28.65;4.32;;;;;;;4.75;100.00;98689.91;6157968;23;20023;-86
2022/01/09 05:11:13;;;;;;;24.77;5.80;;;;;;;4.75;100.00;98696.06;6207639;23;20044;-87
2022/01/09 05:13:38;;;;;;;23.33;5.07;;;;;;;4.75;100.00;98701.38;6158878;23;20027;-87
2022/01/09 05:16:04;;;;;;;22.40;4.47;;;;;;;4.77;100.00;98703.00;6207896;23;20046;-88
2022/01/09 05:18:32;;;;;;;19.98;4.03;;;;;;;4.75;100.00;98706.69;6210319;23;20352;-87
2022/01/09 05:20:58;;;;;;;25.98;4.75;;;;;;;4.77;100.00;98729.59;6207932;23;20017;-86
2022/01/09 05:23:23;;;;;;;22.45;4.35;;;;;;;4.76;100.00;98728.75;6207800;23;20107;-87
2022/01/09 05:25:49;;;;;;;23.48;4.93;;;;;;;4.76;100.00;98734.06;6158761;23;20571;-87
2022/01/09 05:28:14;;;;;;;17.60;4.03;;;;;;;4.77;100.00;98750.84;6182653;23;20083;-87
2022/01/09 05:30:39;;;;;;;18.95;3.50;;;;;;;4.74;100.00;98736.06;6159305;23;20028;-87
2022/01/09 05:33:05;;;;;;;24.50;4.65;;;;;;;4.74;100.00;98752.00;6205316;23;20025;-87
2022/01/09 05:35:30;;;;;;;20.42;4.40;;;;;;;4.74;100.00;98762.66;6136389;23;20055;-87
2022/01/09 05:37:56;;;;;;;23.92;3.97;;;;;;;4.73;100.00;98767.13;6159359;23;20770;-87
2022/01/09 05:40:21;;;;;;;12.43;3.10;;;;;;;4.73;100.00;98775.09;6157471;23;20063;-89
2022/01/09 05:42:47;;;;;;;18.08;3.97;;;;;;;4.74;100.00;98767.97;6184651;23;20075;-88
2022/01/09 05:45:16;;;;;;;17.02;4.32;;;;;;;4.72;100.00;98783.28;6214142;23;20060;-87
2022/01/09 05:47:42;;;;;;;18.75;4.20;;;;;;;4.70;100.00;98798.56;6182748;23;20466;-88
2022/01/09 05:50:07;;;;;;;15.57;3.80;;;;;;;4.65;100.00;98807.03;6179932;23;20024;-86
2022/01/09 05:52:33;;;;;;;15.40;3.45;;;;;;;4.63;100.00;98803.75;6212092;23;20017;-87
2022/01/09 05:54:58;;;;;;;14.48;3.13;;;;;;;4.62;100.00;98812.69;6159942;23;20021;-89
2022/01/09 05:57:23;;;;;;;17.83;3.47;;;;;;;4.61;100.00;98805.75;6181937;23;20013;-88
2022/01/09 05:59:49;;;;;;;14.57;3.15;;;;;;;4.61;100.00;98820.88;6194771;23;20531;-88
2022/01/09 06:02:14;;;;;;;12.60;2.75;;;;;;;4.59;100.00;98821.03;6210569;23;20432;-88
2022/01/09 06:04:39;;;;;;;13.85;3.03;;;;;;;4.57;100.00;98830.16;6161830;23;20043;-88
2022/01/09 06:07:05;;;;;;;14.23;2.80;;;;;;;4.55;100.00;98838.31;6136454;23;20367;-87
2022/01/09 06:09:30;;;;;;;16.05;2.70;;;;;;;4.55;100.00;98846.28;6214065;23;20020;-87
2022/01/09 06:11:57;;;;;;;12.32;2.53;;;;;;;4.53;100.00;98858.91;6184884;23;20333;-88
2022/01/09 06:14:22;;;;;;;15.30;2.95;;;;;;;4.51;100.00;98863.56;6141030;23;20439;-88
2022/01/09 06:16:47;;;;;;;14.02;3.13;;;;;;;4.48;100.00;98858.59;6214181;23;20029;-87
2022/01/09 06:19:13;;;;;;;14.27;2.47;;;;;;;4.44;100.00;98878.53;6160228;23;20020;-89
2022/01/09 06:21:38;;;;;;;17.23;4.07;;;;;;;4.41;100.00;98876.22;6195666;23;20036;-87
2022/01/09 06:24:04;;;;;;;20.90;4.00;;;;;;;4.39;100.00;98871.06;6207656;23;20027;-86
2022/01/09 06:26:29;;;;;;;18.67;3.78;;;;;;;4.38;100.00;98876.56;6233867;23;20016;-85
2022/01/09 06:28:55;;;;;;;21.48;4.30;;;;;;;4.36;100.00;98884.69;6182348;23;20009;-86
2022/01/09 06:31:20;;;;;;;18.08;3.60;;;;;;;4.33;100.00;98890.34;6206332;23;20103;-85
2022/01/09 06:33:46;;;;;;;14.15;3.40;;;;;;;4.27;100.00;98902.47;6168843;23;20439;-86
2022/01/09 06:36:12;;;;;;;15.40;2.53;;;;;;;4.15;100.00;98903.03;6157440;23;20008;-86
2022/01/09 06:38:37;;;;;;;9.65;2.65;;;;;;;4.09;100.00;98907.19;6207661;23;20013;-87
2022/01/09 06:41:04;;;;;;;8.77;1.80;;;;;;;4.12;100.00;98906.84;6155708;23;20024;-86
2022/01/09 06:43:30;;;;;;;9.55;2.00;;;;;;;4.11;100.00;98912.31;6181787;23;20016;-87
2022/01/09 06:45:56;;;;;;;10.98;2.40;;;;;;;4.12;100.00;98911.31;6131563;23;20027;-86
2022/01/09 06:48:22;;;;;;;11.88;2.90;;;;;;;4.11;100.00;98923.75;6155271;23;20036;-87
2022/01/09 06:50:51;;;;;;;12.43;3.13;;;;;;;4.14;100.00;98927.88;6206500;23;20036;-86
2022/01/09 06:53:17;;;;;;;24.05;4.28;;;;;;;4.19;100.00;98934.34;6182555;23;20019;-85
2022/01/09 06:55:44;;;;;;;24.63;7.20;;;;;;;4.20;100.00;98944.00;6182581;23;20494;-85
2022/01/09 06:58:09;;;;;;;23.45;4.63;;;;;;;4.23;100.00;98951.63;6206529;23;20037;-86
2022/01/09 07:00:37;;;;;;;13.27;3.53;;;;;;;4.25;100.00;98941.63;6181858;23;20100;-86
2022/01/09 07:03:02;;;;;;;12.90;4.07;;;;;;;4.24;100.00;98963.06;6181259;23;20065;-87
2022/01/09 07:05:27;;;;;;;23.90;3.28;;;;;;;4.24;100.00;98950.63;6183468;23;20017;-87
2022/01/09 07:07:53;;;;;;;20.08;4.10;;;;;;;4.25;100.00;98962.88;6179924;23;20032;-87
2022/01/09 07:10:19;;;;;;;15.05;3.42;;;;;;;4.25;100.00;98962.06;6182291;23;20013;-86
2022/01/09 07:12:45;;;;;;;24.25;5.60;;;;;;;4.26;100.00;98982.31;6130463;23;20013;-87
2022/01/09 07:15:11;;;;;;;32.03;5.72;;;;;;;4.26;100.00;98982.31;6204823;23;20078;-86
2022/01/09 07:17:37;;;;;;;26.00;6.32;;;;;;;4.25;100.00;98992.09;6181351;23;20047;-87
2022/01/09 07:20:03;;;;;;;20.90;4.25;;;;;;;4.23;100.00;98998.56;6179654;23;20016;-86
2022/01/09 07:22:28;;;;;;;22.98;5.20;;;;;;;4.23;100.00;98994.09;6179545;23;20023;-87
2022/01/09 07:24:55;;;;;;;15.70;4.57;;;;;;;4.23;100.00;99003.88;6181234;23;20351;-88
2022/01/09 07:27:21;;;;;;;27.30;6.57;;;;;;;4.24;100.00;99006.38;6204892;23;20024;-87
2022/01/09 07:29:49;;;;;;;20.25;5.80;;;;;;;4.23;100.00;99025.13;6182339;23;20104;-86
2022/01/09 07:32:16;;;;;;;22.20;5.45;;;;;;;4.22;100.00;99026.13;6206748;23;20017;-86
2022/01/09 07:34:41;;;;;;;20.75;5.68;;;;;;;4.23;100.00;99033.06;6182727;23;20339;-87
2022/01/09 07:37:08;;;;;;;28.80;6.70;;;;;;;4.21;100.00;99043.06;6180820;23;20019;-87
2022/01/09 07:39:34;;;;;;;20.98;4.93;;;;;;;4.19;100.00;99039.72;6158195;23;20095;-86
2022/01/09 07:41:59;;;;;;;15.93;4.03;;;;;;;4.15;100.00;99028.63;6152107;23;20067;-86
2022/01/09 07:44:25;;;;;;;23.42;3.80;;;;;;;4.15;100.00;99049.03;6182936;23;20054;-86
2022/01/09 07:46:51;;;;;;;15.75;4.80;;;;;;;4.12;100.00;99050.19;6210649;23;20012;-86
2022/01/09 07:49:16;;;;;;;16.48;4.80;;;;;;;4.12;100.00;99062.63;6210771;23;20020;-88
2022/01/09 07:51:42;;;;;;;14.45;3.80;;;;;;;4.08;100.00;99062.13;6160924;23;20016;-88
2022/01/09 07:54:07;;;;;;;20.10;4.90;;;;;;;4.08;100.00;99064.78;6135223;23;20024;-88
2022/01/09 07:56:32;;;;;;;21.50;5.57;;;;;;;4.05;100.00;99070.41;6136222;23;20542;-89
2022/01/09 07:58:58;;;;;;;21.08;5.68;;;;;;;4.04;100.00;99072.25;6159815;23;20017;-88
2022/01/09 08:01:23;;;;;;;25.98;6.32;;;;;;;4.02;100.00;99076.06;6186423;23;20048;-89
2022/01/09 08:03:48;;;;;;;14.77;4.05;;;;;;;4.04;100.00;99084.69;6183983;23;20013;-88
2022/01/09 08:06:15;;;;;;;20.65;4.72;;;;;;;4.02;100.00;99102.59;6211919;23;20150;-89
2022/01/09 08:08:40;;;;;;;18.88;3.47;;;;;;;4.01;100.00;99098.28;6160962;23;20108;-88
2022/01/09 08:11:06;;;;;;;22.13;5.03;;;;;;;4.06;100.00;99107.44;6183086;23;20451;-88
2022/01/09 08:13:31;;;;;;;12.45;3.90;;;;;;;4.07;100.00;99105.59;6159618;23;20019;-89
2022/01/09 08:15:56;;;;;;;21.55;4.63;;;;;;;4.07;100.00;99108.25;6184410;23;20052;-87
2022/01/09 08:18:22;;;;;;;17.10;4.68;;;;;;;4.06;100.00;99106.59;6183371;23;20020;-89
2022/01/09 08:20:47;;;;;;;22.58;5.57;;;;;;;4.03;100.00;99099.78;6184397;23;20016;-88
2022/01/09 08:23:12;;;;;;;16.08;5.32;;;;;;;4.04;100.00;99108.56;6210679;23;20375;-87
2022/01/09 08:25:38;;;;;;;20.25;5.18;;;;;;;4.03;100.00;99115.72;6135508;23;20040;-90
2022/01/09 08:28:03;;;;;;;15.70;4.78;;;;;;;4.05;100.00;99123.50;6133691;23;20020;-88
2022/01/09 08:30:29;;;;;;;14.52;5.40;;;;;;;4.06;100.00;99143.75;6211144;23;20019;-87
2022/01/09 08:32:54;;;;;;;14.68;4.53;;;;;;;4.05;100.00;99137.59;6190212;23;20016;-87
2022/01/09 08:35:21;;;;;;;19.60;5.60;;;;;;;4.06;100.00;99141.94;6202577;23;20172;-89
2022/01/09 08:37:48;;;;;;;20.13;4.72;;;;;;;4.04;100.00;99143.91;6215557;23;20031;-89
2022/01/09 08:40:21;;;;;;;15.43;4.85;;;;;;;4.05;100.00;99150.03;6191857;23;20019;-89
2022/01/09 08:42:53;;;;;;;13.82;4.00;;;;;;;4.06;100.00;99154.38;6209788;23;20028;-88
2022/01/09 08:45:19;;;;;;;15.82;3.97;;;;;;;4.04;100.00;99153.72;6203947;23;20538;-87
2022/01/09 08:47:44;;;;;;;14.02;3.53;;;;;;;4.03;100.00;99154.72;6181821;23;20025;-88
2022/01/09 08:50:12;;;;;;;16.63;3.58;;;;;;;4.04;100.00;99172.28;6178889;23;20347;-87
2022/01/09 08:52:37;;;;;;;18.67;4.90;;;;;;;4.03;100.00;99160.84;6208030;23;20012;-87
2022/01/09 08:55:04;;;;;;;17.35;4.72;;;;;;;4.02;100.00;99164.47;6184626;23;20019;-89
2022/01/09 08:57:30;;;;;;;13.60;3.72;;;;;;;4.02;100.00;99174.25;6182316;23;20470;-88
2022/01/09 08:59:56;;;;;;;11.23;4.10;;;;;;;3.99;100.00;99175.41;6209564;23;20012;-87
2022/01/09 09:02:21;;;;;;;9.02;3.33;;;;;;;3.96;100.00;99169.59;6207143;23;20020;-87
2022/01/09 09:04:47;;;;;;;13.75;3.30;;;;;;;3.98;100.00;99180.91;6210018;23;20013;-88
2022/01/09 09:07:14;;;;;;;11.98;3.22;;;;;;;3.96;100.00;99193.50;6158270;23;20340;-87
2022/01/09 09:09:40;;;;;;;17.90;4.78;;;;;;;3.98;100.00;99196.81;6211349;23;20040;-88
2022/01/09 09:12:06;;;;;;;13.45;3.65;;;;;;;3.95;100.00;99203.28;6208204;23;20027;-87
2022/01/09 09:14:31;;;;;;;10.90;3.10;;;;;;;3.97;100.00;99205.75;6209970;23;20017;-87
2022/01/09 09:16:57;;;;;;;9.00;2.45;;;;;;;3.93;100.00;99209.72;6158786;23;20013;-88
2022/01/09 09:19:22;;;;;;;15.15;6.55;;;;;;;3.94;100.00;99201.63;6180462;23;20332;-88
2022/01/09 09:21:48;;;;;;;15.25;3.45;;;;;;;3.93;100.00;99207.09;6208516;23;20025;-88
2022/01/09 09:24:14;;;;;;;13.20;4.10;;;;;;;3.96;100.00;99225.34;6182494;23;20017;-87
2022/01/09 09:26:40;;;;;;;9.57;3.53;;;;;;;3.93;100.00;99221.19;6154667;23;20027;-88
2022/01/09 09:29:05;;;;;;;15.18;3.95;;;;;;;3.92;100.00;99232.78;6203027;23;20079;-88
2022/01/09 09:31:31;;;;;;;14.27;4.47;;;;;;;3.94;100.00;99236.13;6182184;23;20017;-88
2022/01/09 09:33:57;;;;;;;14.25;4.95;;;;;;;3.95;100.00;99260.84;6182055;23;20093;-89
2022/01/09 09:36:24;;;;;;;13.20;3.92;;;;;;;3.92;100.00;99239.94;6169291;23;20024;-88
2022/01/09 09:38:49;;;;;;;15.18;3.92;;;;;;;3.95;100.00;99255.53;6209205;23;20022;-88
2022/01/09 09:41:15;;;;;;;15.95;3.97;;;;;;;3.96;100.00;99259.84;6196146;23;20044;-88
2022/01/09 09:43:40;;;;;;;13.00;3.47;;;;;;;3.96;100.00;99255.38;6209208;23;20016;-88
2022/01/09 09:46:06;;;;;;;13.40;3.42;;;;;;;3.95;100.00;99256.38;6181546;23;20078;-87
2022/01/09 09:48:31;;;;;;;10.32;3.10;;;;;;;3.97;100.00;99269.47;6177911;23;20013;-89
2022/01/09 09:50:57;;;;;;;7.75;2.95;;;;;;;3.95;100.00;99266.97;6192167;23;20091;-88
2022/01/09 09:53:23;;;;;;;8.10;3.35;;;;;;;3.97;100.00;99274.78;6153706;23;20438;-89
2022/01/09 09:55:51;;;;;;;12.10;4.00;;;;;;;4.00;100.00;99277.09;6181839;23;20013;-88
2022/01/09 09:58:18;;;;;;;12.02;4.10;;;;;;;4.00;100.00;99275.31;6193532;23;20020;-88
2022/01/09 10:00:54;;;;;;;11.18;3.63;;;;;;;3.99;100.00;99270.97;6170486;23;20023;-88
2022/01/09 10:03:30;;;;;;;4.68;2.47;;;;;;;3.97;100.00;99285.38;6207919;23;20028;-88
2022/01/09 10:05:57;;;;;;;11.43;3.40;;;;;;;3.99;100.00;99286.06;6183124;23;20455;-88
2022/01/09 10:08:35;;;;;;;13.10;3.58;;;;;;;4.00;100.00;99290.38;6208162;23;20027;-88
2022/01/09 10:11:11;;;;;;;10.95;4.03;;;;;;;4.00;100.00;99290.38;6190397;23;20052;-87
2022/01/09 10:13:36;;;;;;;14.55;4.32;;;;;;;4.03;100.00;99290.09;6176665;23;20017;-88
2022/01/09 10:16:02;;;;;;;9.90;3.70;;;;;;;4.03;100.00;99306.00;6194491;23;20452;-88
2022/01/09 10:18:41;;;;;;;16.45;4.43;;;;;;;4.04;100.00;99305.84;6207046;23;20013;-88
2022/01/09 10:21:10;;;;;;;13.93;4.75;;;;;;;4.05;100.00;99304.00;6204775;23;20052;-89
2022/01/09 10:24:15;;;;;;;12.65;3.92;;;;;;;4.04;100.00;99310.31;6208132;23;20017;-88
2022/01/09 10:26:48;;;;;;;10.27;3.33;;;;;;;4.00;100.00;99301.84;6159164;23;20025;-88
2022/01/09 10:29:14;;;;;;;13.57;2.97;;;;;;;4.02;100.00;99310.47;6208332;23;20012;-87
2022/01/09 10:31:48;;;;;;;9.88;2.75;;;;;;;4.07;100.00;99318.78;6182724;23;20027;-88
2022/01/09 10:34:16;;;;;;;13.88;3.33;;;;;;;4.09;100.00;99309.84;6182446;23;20020;-88
2022/01/09 10:36:51;;;;;;;14.95;4.13;;;;;;;4.10;100.00;99322.13;6133568;23;20092;-88
2022/01/09 10:39:22;;;;;;;12.38;3.92;;;;;;;4.14;100.00;99316.31;6159819;23;20012;-88
2022/01/09 10:42:03;;;;;;;12.13;2.78;;;;;;;4.16;100.00;99327.63;6185058;23;20452;-88
2022/01/09 10:44:32;;;;;;;9.05;3.28;;;;;;;4.18;100.00;99328.31;6205598;23;20027;-88
2022/01/09 10:47:09;;;;;;;11.15;3.72;;;;;;;4.21;100.00;99335.97;6211168;23;20103;-87
2022/01/09 10:49:41;;;;;;;10.18;3.08;;;;;;;4.23;100.00;99343.75;6208127;23;20017;-89
2022/01/09 10:52:18;;;;;;;13.15;3.03;;;;;;;4.28;100.00;99344.94;6134151;23;20023;-88
2022/01/09 10:54:46;;;;;;;14.43;4.38;;;;;;;4.28;100.00;99347.59;6212616;23;20016;-89
2022/01/09 10:57:18;;;;;;;11.45;3.33;;;;;;;4.33;100.00;99355.09;6208278;23;20337;-89
2022/01/09 10:59:44;;;;;;;13.82;4.85;;;;;;;4.38;100.00;99349.31;6183944;23;20008;-88
2022/01/09 11:02:12;;;;;;;6.57;2.05;;;;;;;4.39;100.00;99353.63;6210491;23;20013;-89
2022/01/09 11:04:38;;;;;;;8.25;3.53;;;;;;;4.41;100.00;99357.78;6158867;23;20064;-89
2022/01/09 11:07:06;;;;;;;14.80;4.28;;;;;;;4.40;100.00;99356.13;6207153;23;20489;-87
2022/01/09 11:09:33;;;;;;;10.90;2.85;;;;;;;4.44;100.00;99369.94;6206775;23;20031;-89
2022/01/09 11:12:01;;;;;;;8.77;2.75;;;;;;;4.44;100.00;99357.47;6205539;23;20017;-89
2022/01/09 11:14:27;;;;;;;10.23;2.80;;;;;;;4.47;100.00;99369.59;6169554;23;20096;-88
2022/01/09 11:16:55;;;;;;;10.73;3.70;;;;;;;4.48;100.00;99360.63;6210727;23;20090;-89
2022/01/09 11:19:22;;;;;;;8.95;3.42;;;;;;;4.49;100.00;99380.91;6158895;23;20025;-88
2022/01/09 11:21:50;;;;;;;10.27;3.72;;;;;;;4.51;100.00;99384.22;6206368;23;20031;-87
2022/01/09 11:24:50;;;;;;;11.52;3.92;;;;;;;4.56;100.00;99402.34;6179941;23;20332;-88